sensor_id;sensor_type;location;lat;lon;timestamp;pressure;altitude;pressure_sealevel;temperature;humidity
38400;BME280;24180;42.676;23.320;2023-08-31T00:00:40;94272.97;;;20.27;78.40
38400;BME280;24180;42.676;23.320;2023-08-31T00:03:06;94264.50;;;20.25;78.44
38400;BME280;24180;42.676;23.320;2023-08-31T00:05:31;94266.50;;;20.23;78.45
38400;BME280;24180;42.676;23.320;2023-08-31T00:07:57;94283.16;;;20.17;78.39
38400;BME280;24180;42.676;23.320;2023-08-31T00:10:22;94278.69;;;20.18;78.39
38400;BME280;24180;42.676;23.320;2023-08-31T00:12:49;94255.72;;;20.07;78.38
38400;BME280;24180;42.676;23.320;2023-08-31T00:15:14;94289.19;;;20.24;78.45
38400;BME280;24180;42.676;23.320;2023-08-31T00:17:40;94278.66;;;20.24;78.45
38400;BME280;24180;42.676;23.320;2023-08-31T00:20:07;94240.56;;;20.02;78.38
38400;BME280;24180;42.676;23.320;2023-08-31T00:22:33;94260.94;;;20.13;78.43
38400;BME280;24180;42.676;23.320;2023-08-31T00:24:58;94281.69;;;20.21;78.45
38400;BME280;24180;42.676;23.320;2023-08-31T00:27:24;94248.66;;;20.27;78.41
38400;BME280;24180;42.676;23.320;2023-08-31T00:29:49;94277.47;;;20.27;78.40
38400;BME280;24180;42.676;23.320;2023-08-31T00:32:16;60073.44;;;24.16;78.79
38400;BME280;24180;42.676;23.320;2023-08-31T00:34:43;94271.59;;;20.25;78.39
38400;BME280;24180;42.676;23.320;2023-08-31T00:37:08;94300.84;;;20.35;78.41
38400;BME280;24180;42.676;23.320;2023-08-31T00:39:34;94282.53;;;20.15;78.39
38400;BME280;24180;42.676;23.320;2023-08-31T00:42:00;94282.28;;;20.30;78.40
38400;BME280;24180;42.676;23.320;2023-08-31T00:44:25;94265.31;;;20.19;78.40
38400;BME280;24180;42.676;23.320;2023-08-31T00:46:51;94299.25;;;20.34;78.46
38400;BME280;24180;42.676;23.320;2023-08-31T00:49:17;94310.97;;;20.38;78.41
38400;BME280;24180;42.676;23.320;2023-08-31T00:51:45;94279.50;;;20.18;78.39
38400;BME280;24180;42.676;23.320;2023-08-31T00:54:15;94315.47;;;20.24;78.41
38400;BME280;24180;42.676;23.320;2023-08-31T00:56:41;94289.59;;;20.21;78.40
38400;BME280;24180;42.676;23.320;2023-08-31T00:59:06;94291.66;;;20.13;78.38
38400;BME280;24180;42.676;23.320;2023-08-31T01:01:36;94328.41;;;20.19;78.40
38400;BME280;24180;42.676;23.320;2023-08-31T01:06:50;94289.53;;;19.97;78.42
38400;BME280;24180;42.676;23.320;2023-08-31T01:09:50;94320.38;;;20.14;78.39
38400;BME280;24180;42.676;23.320;2023-08-31T01:12:29;94301.97;;;20.08;78.39
38400;BME280;24180;42.676;23.320;2023-08-31T01:15:03;94320.78;;;20.11;78.39
38400;BME280;24180;42.676;23.320;2023-08-31T01:17:38;94309.47;;;20.04;78.43
38400;BME280;24180;42.676;23.320;2023-08-31T01:20:09;94310.28;;;20.11;78.39
38400;BME280;24180;42.676;23.320;2023-08-31T01:22:43;94315.94;;;20.08;78.39
38400;BME280;24180;42.676;23.320;2023-08-31T01:25:09;60051.19;;;24.24;78.79
38400;BME280;24180;42.676;23.320;2023-08-31T01:27:38;94286.09;;;19.96;78.38
38400;BME280;24180;42.676;23.320;2023-08-31T01:30:05;60073.44;;;24.24;78.73
38400;BME280;24180;42.676;23.320;2023-08-31T01:32:31;94302.63;;;20.03;78.38
38400;BME280;24180;42.676;23.320;2023-08-31T01:34:57;94289.38;;;19.90;78.41
38400;BME280;24180;42.676;23.320;2023-08-31T01:38:15;94311.09;;;20.05;78.38
38400;BME280;24180;42.676;23.320;2023-08-31T01:40:42;94321.25;;;19.95;78.38
38400;BME280;24180;42.676;23.320;2023-08-31T01:43:11;94270.66;;;19.62;78.34
38400;BME280;24180;42.676;23.320;2023-08-31T01:45:37;94334.25;;;19.77;78.36
38400;BME280;24180;42.676;23.320;2023-08-31T01:48:04;94299.06;;;19.78;78.36
38400;BME280;24180;42.676;23.320;2023-08-31T01:50:30;94299.06;;;19.78;78.39
38400;BME280;24180;42.676;23.320;2023-08-31T01:52:55;94311.25;;;19.59;78.39
38400;BME280;24180;42.676;23.320;2023-08-31T01:55:24;94308.03;;;19.50;78.33
38400;BME280;24180;42.676;23.320;2023-08-31T01:57:50;94322.59;;;19.46;78.34
38400;BME280;24180;42.676;23.320;2023-08-31T02:00:16;94286.22;;;19.46;78.33
38400;BME280;24180;42.676;23.320;2023-08-31T02:02:42;94287.47;;;19.34;78.33
38400;BME280;24180;42.676;23.320;2023-08-31T02:05:08;94318.13;;;19.47;78.34
38400;BME280;24180;42.676;23.320;2023-08-31T02:07:34;60052.50;;;24.16;78.73
38400;BME280;24180;42.676;23.320;2023-08-31T02:09:59;94315.13;;;19.37;78.32
38400;BME280;24180;42.676;23.320;2023-08-31T02:12:25;94338.38;;;19.40;78.32
38400;BME280;24180;42.676;23.320;2023-08-31T02:14:50;94305.47;;;19.24;78.31
38400;BME280;24180;42.676;23.320;2023-08-31T02:17:16;94338.38;;;19.33;78.32
38400;BME280;24180;42.676;23.320;2023-08-31T02:19:41;94288.88;;;19.24;78.31
38400;BME280;24180;42.676;23.320;2023-08-31T02:22:06;94328.69;;;19.34;78.32
38400;BME280;24180;42.676;23.320;2023-08-31T02:24:32;94323.44;;;19.34;78.32
38400;BME280;24180;42.676;23.320;2023-08-31T02:26:57;94310.50;;;19.32;78.32
38400;BME280;24180;42.676;23.320;2023-08-31T02:29:23;94314.94;;;19.32;78.32
38400;BME280;24180;42.676;23.320;2023-08-31T02:31:48;94320.59;;;19.29;78.32
38400;BME280;24180;42.676;23.320;2023-08-31T02:34:13;94311.34;;;19.26;78.31
38400;BME280;24180;42.676;23.320;2023-08-31T02:36:39;94315.75;;;19.19;78.31
38400;BME280;24180;42.676;23.320;2023-08-31T02:39:05;94274.22;;;19.19;78.30
38400;BME280;24180;42.676;23.320;2023-08-31T02:41:31;94304.47;;;18.99;78.29
38400;BME280;24180;42.676;23.320;2023-08-31T02:43:56;94278.84;;;19.02;78.30
38400;BME280;24180;42.676;23.320;2023-08-31T02:46:22;94311.38;;;19.05;78.30
38400;BME280;24180;42.676;23.320;2023-08-31T02:48:48;94311.34;;;19.05;78.30
38400;BME280;24180;42.676;23.320;2023-08-31T02:51:13;94308.97;;;19.10;78.29
38400;BME280;24180;42.676;23.320;2023-08-31T02:53:39;94329.88;;;18.92;78.28
38400;BME280;24180;42.676;23.320;2023-08-31T02:56:04;94294.97;;;18.78;78.27
38400;BME280;24180;42.676;23.320;2023-08-31T02:58:29;94333.94;;;18.88;78.28
38400;BME280;24180;42.676;23.320;2023-08-31T03:00:55;94318.19;;;18.88;78.28
38400;BME280;24180;42.676;23.320;2023-08-31T03:03:21;94329.13;;;18.98;78.28
38400;BME280;24180;42.676;23.320;2023-08-31T03:05:47;94324.03;;;18.77;78.27
38400;BME280;24180;42.676;23.320;2023-08-31T03:08:12;94341.00;;;18.81;78.28
38400;BME280;24180;42.676;23.320;2023-08-31T03:10:38;94340.00;;;18.82;78.28
38400;BME280;24180;42.676;23.320;2023-08-31T03:13:04;94328.66;;;18.61;78.25
38400;BME280;24180;42.676;23.320;2023-08-31T03:15:32;60052.50;;;24.12;78.74
38400;BME280;24180;42.676;23.320;2023-08-31T03:17:59;94310.88;;;29.27;78.26
38400;BME280;24180;42.676;23.320;2023-08-31T03:20:25;94336.72;;;18.63;78.27
38400;BME280;24180;42.676;23.320;2023-08-31T03:22:50;94326.25;;;18.80;78.27
38400;BME280;24180;42.676;23.320;2023-08-31T03:25:16;94351.69;;;18.73;78.24
38400;BME280;24180;42.676;23.320;2023-08-31T03:27:41;94322.44;;;18.73;78.27
38400;BME280;24180;42.676;23.320;2023-08-31T03:30:07;94334.34;;;18.69;78.26
38400;BME280;24180;42.676;23.320;2023-08-31T03:32:33;94317.34;;;18.41;78.24
38400;BME280;24180;42.676;23.320;2023-08-31T03:34:58;94299.00;;;18.41;78.25
38400;BME280;24180;42.676;23.320;2023-08-31T03:37:24;94322.38;;;18.55;78.24
38400;BME280;24180;42.676;23.320;2023-08-31T03:39:49;94324.59;;;18.49;78.24
38400;BME280;24180;42.676;23.320;2023-08-31T03:42:15;94333.47;;;18.46;78.25
38400;BME280;24180;42.676;23.320;2023-08-31T03:44:41;94311.88;;;18.51;78.23
38400;BME280;24180;42.676;23.320;2023-08-31T03:47:06;94368.59;;;18.50;78.24
38400;BME280;24180;42.676;23.320;2023-08-31T03:49:32;94339.91;;;18.50;78.24
38400;BME280;24180;42.676;23.320;2023-08-31T03:51:58;94357.66;;;18.40;78.24
38400;BME280;24180;42.676;23.320;2023-08-31T03:54:24;94364.94;;;18.38;78.23
38400;BME280;24180;42.676;23.320;2023-08-31T03:56:49;94327.56;;;18.38;78.22
38400;BME280;24180;42.676;23.320;2023-08-31T03:59:16;94335.59;;;18.23;78.22
38400;BME280;24180;42.676;23.320;2023-08-31T04:01:41;94322.47;;;18.02;78.21
38400;BME280;24180;42.676;23.320;2023-08-31T04:04:06;94371.72;;;18.19;78.20
38400;BME280;24180;42.676;23.320;2023-08-31T04:06:32;94336.94;;;18.19;78.20
38400;BME280;24180;42.676;23.320;2023-08-31T04:08:57;94368.59;;;17.91;78.21
38400;BME280;24180;42.676;23.320;2023-08-31T04:11:24;94376.69;;;18.03;78.20
38400;BME280;24180;42.676;23.320;2023-08-31T04:13:50;94383.75;;;18.08;78.18
38400;BME280;24180;42.676;23.320;2023-08-31T04:16:15;94396.84;;;18.07;78.17
38400;BME280;24180;42.676;23.320;2023-08-31T04:18:40;94411.13;;;17.98;78.18
38400;BME280;24180;42.676;23.320;2023-08-31T04:21:08;94400.25;;;17.98;78.20
38400;BME280;24180;42.676;23.320;2023-08-31T04:23:33;94401.81;;;18.01;78.17
38400;BME280;24180;42.676;23.320;2023-08-31T04:25:59;94404.66;;;17.94;78.18
38400;BME280;24180;42.676;23.320;2023-08-31T04:28:24;94420.56;;;17.93;78.20
38400;BME280;24180;42.676;23.320;2023-08-31T04:30:50;94380.66;;;17.93;78.17
38400;BME280;24180;42.676;23.320;2023-08-31T04:33:16;94401.81;;;17.91;78.19
38400;BME280;24180;42.676;23.320;2023-08-31T04:35:41;94408.34;;;17.96;78.21
38400;BME280;24180;42.676;23.320;2023-08-31T04:38:07;94402.03;;;18.01;78.18
38400;BME280;24180;42.676;23.320;2023-08-31T04:40:33;94412.78;;;18.06;78.19
38400;BME280;24180;42.676;23.320;2023-08-31T04:42:58;94404.72;;;18.06;78.18
38400;BME280;24180;42.676;23.320;2023-08-31T04:45:23;94406.97;;;18.07;78.21
38400;BME280;24180;42.676;23.320;2023-08-31T04:47:49;94371.19;;;17.90;78.19
38400;BME280;24180;42.676;23.320;2023-08-31T04:50:16;94409.63;;;17.90;78.20
38400;BME280;24180;42.676;23.320;2023-08-31T04:52:42;94376.50;;;18.23;78.18
38400;BME280;24180;42.676;23.320;2023-08-31T04:55:08;94408.22;;;18.09;78.19
38400;BME280;24180;42.676;23.320;2023-08-31T04:57:34;94395.31;;;18.21;78.20
38400;BME280;24180;42.676;23.320;2023-08-31T04:59:59;94384.22;;;18.27;78.21
38400;BME280;24180;42.676;23.320;2023-08-31T05:02:25;94397.78;;;18.31;78.22
38400;BME280;24180;42.676;23.320;2023-08-31T05:04:51;94400.81;;;18.44;78.22
38400;BME280;24180;42.676;23.320;2023-08-31T05:07:16;94413.75;;;18.59;78.23
38400;BME280;24180;42.676;23.320;2023-08-31T05:09:41;94408.94;;;18.59;78.23
38400;BME280;24180;42.676;23.320;2023-08-31T05:12:07;94402.41;;;18.39;78.21
38400;BME280;24180;42.676;23.320;2023-08-31T05:14:33;94390.78;;;18.39;78.23
38400;BME280;24180;42.676;23.320;2023-08-31T05:17:05;94420.28;;;18.69;78.24
38400;BME280;24180;42.676;23.320;2023-08-31T05:19:30;94415.44;;;18.69;78.24
38400;BME280;24180;42.676;23.320;2023-08-31T05:21:56;94425.31;;;18.73;78.27
38400;BME280;24180;42.676;23.320;2023-08-31T05:24:22;94427.38;;;18.78;78.26
38400;BME280;24180;42.676;23.320;2023-08-31T05:26:48;94425.16;;;18.82;78.29
38400;BME280;24180;42.676;23.320;2023-08-31T05:29:14;94421.53;;;19.00;78.26
38400;BME280;24180;42.676;23.320;2023-08-31T05:31:39;94412.22;;;19.00;78.28
38400;BME280;24180;42.676;23.320;2023-08-31T05:34:04;94423.19;;;18.98;78.30
38400;BME280;24180;42.676;23.320;2023-08-31T05:36:30;94426.84;;;19.14;78.31
38400;BME280;24180;42.676;23.320;2023-08-31T05:38:55;94411.09;;;19.26;78.31
38400;BME280;24180;42.676;23.320;2023-08-31T05:41:21;94421.75;;;19.26;78.32
38400;BME280;24180;42.676;23.320;2023-08-31T05:43:46;94409.47;;;19.25;78.31
38400;BME280;24180;42.676;23.320;2023-08-31T05:46:11;94450.25;;;19.41;78.33
38400;BME280;24180;42.676;23.320;2023-08-31T05:48:37;94428.84;;;19.44;78.33
38400;BME280;24180;42.676;23.320;2023-08-31T05:51:02;94448.63;;;19.60;78.35
38400;BME280;24180;42.676;23.320;2023-08-31T05:53:30;94440.94;;;19.65;78.34
38400;BME280;24180;42.676;23.320;2023-08-31T05:55:57;94437.31;;;19.66;78.35
38400;BME280;24180;42.676;23.320;2023-08-31T05:58:30;94439.75;;;19.87;78.36
38400;BME280;24180;42.676;23.320;2023-08-31T06:00:55;94417.09;;;19.87;78.37
38400;BME280;24180;42.676;23.320;2023-08-31T06:03:21;94444.56;;;19.90;78.37
38400;BME280;24180;42.676;23.320;2023-08-31T06:05:47;94443.78;;;19.89;78.37
38400;BME280;24180;42.676;23.320;2023-08-31T06:08:13;94424.38;;;19.84;78.37
38400;BME280;24180;42.676;23.320;2023-08-31T06:10:38;94423.56;;;19.84;78.38
38400;BME280;24180;42.676;23.320;2023-08-31T06:13:04;94462.09;;;20.16;78.39
38400;BME280;24180;42.676;23.320;2023-08-31T06:15:29;94436.44;;;20.18;78.39
38400;BME280;24180;42.676;23.320;2023-08-31T06:17:55;94454.00;;;20.18;78.40
38400;BME280;24180;42.676;23.320;2023-08-31T06:20:20;94440.44;;;20.20;78.40
38400;BME280;24180;42.676;23.320;2023-08-31T06:22:45;94451.56;;;20.29;78.40
38400;BME280;24180;42.676;23.320;2023-08-31T06:25:11;94462.25;;;20.41;78.41
38400;BME280;24180;42.676;23.320;2023-08-31T06:27:36;94474.38;;;20.55;78.43
38400;BME280;24180;42.676;23.320;2023-08-31T06:30:02;94477.97;;;20.60;78.44
38400;BME280;24180;42.676;23.320;2023-08-31T06:32:28;94484.41;;;20.71;78.44
38400;BME280;24180;42.676;23.320;2023-08-31T06:34:54;94465.00;;;20.65;78.43
38400;BME280;24180;42.676;23.320;2023-08-31T06:37:19;94487.59;;;20.86;78.46
38400;BME280;24180;42.676;23.320;2023-08-31T06:39:45;94490.00;;;20.94;78.46
38400;BME280;24180;42.676;23.320;2023-08-31T06:42:11;94483.06;;;21.00;78.52
38400;BME280;24180;42.676;23.320;2023-08-31T06:44:36;94469.69;;;21.01;78.47
38400;BME280;24180;42.676;23.320;2023-08-31T06:47:01;94488.31;;;21.06;78.47
38400;BME280;24180;42.676;23.320;2023-08-31T06:49:28;94499.97;;;21.24;78.49
38400;BME280;24180;42.676;23.320;2023-08-31T06:51:55;94487.56;;;21.31;78.49
38400;BME280;24180;42.676;23.320;2023-08-31T06:54:20;94493.44;;;21.33;78.49
38400;BME280;24180;42.676;23.320;2023-08-31T06:56:46;94506.25;;;21.54;78.55
38400;BME280;24180;42.676;23.320;2023-08-31T06:59:12;94506.56;;;21.64;78.57
38400;BME280;24180;42.676;23.320;2023-08-31T07:01:37;94513.16;;;21.80;78.58
38400;BME280;24180;42.676;23.320;2023-08-31T07:04:03;94461.94;;;21.69;78.52
38400;BME280;24180;42.676;23.320;2023-08-31T07:06:29;94513.69;;;21.88;78.59
38400;BME280;24180;42.676;23.320;2023-08-31T07:08:55;94497.22;;;21.99;78.60
38400;BME280;24180;42.676;23.320;2023-08-31T07:11:20;94510.72;;;22.10;78.61
38400;BME280;24180;42.676;23.320;2023-08-31T07:13:45;94465.69;;;22.04;78.60
38400;BME280;24180;42.676;23.320;2023-08-31T07:16:11;94486.72;;;22.36;78.58
38400;BME280;24180;42.676;23.320;2023-08-31T07:18:36;94485.09;;;22.53;78.65
38400;BME280;24180;42.676;23.320;2023-08-31T07:21:02;60059.53;;;24.24;78.79
38400;BME280;24180;42.676;23.320;2023-08-31T07:23:30;94512.84;;;23.29;78.71
38400;BME280;24180;42.676;23.320;2023-08-31T07:25:58;94454.94;;;23.27;78.71
38400;BME280;24180;42.676;23.320;2023-08-31T07:28:25;94506.28;;;23.61;78.74
38400;BME280;24180;42.676;23.320;2023-08-31T07:31:02;94530.56;;;23.58;78.73
38400;BME280;24180;42.676;23.320;2023-08-31T07:33:29;94520.44;;;23.66;78.75
38400;BME280;24180;42.676;23.320;2023-08-31T07:35:56;94494.16;;;23.42;78.72
38400;BME280;24180;42.676;23.320;2023-08-31T07:38:21;94530.56;;;23.58;78.73
38400;BME280;24180;42.676;23.320;2023-08-31T07:40:47;94522.03;;;23.56;78.74
38400;BME280;24180;42.676;23.320;2023-08-31T07:43:12;94577.56;;;23.19;78.70
38400;BME280;24180;42.676;23.320;2023-08-31T07:45:39;94497.78;;;23.47;78.72
38400;BME280;24180;42.676;23.320;2023-08-31T07:48:04;94483.63;;;23.53;78.73
38400;BME280;24180;42.676;23.320;2023-08-31T07:50:31;94510.91;;;23.65;78.75
38400;BME280;24180;42.676;23.320;2023-08-31T07:52:56;94526.88;;;23.59;78.73
38400;BME280;24180;42.676;23.320;2023-08-31T07:55:22;94517.97;;;23.83;78.76
38400;BME280;24180;42.676;23.320;2023-08-31T07:57:47;94536.16;;;23.91;78.77
38400;BME280;24180;42.676;23.320;2023-08-31T08:00:13;94528.69;;;24.00;78.77
38400;BME280;24180;42.676;23.320;2023-08-31T08:02:40;94561.84;;;24.14;78.78
38400;BME280;24180;42.676;23.320;2023-08-31T08:05:06;94545.16;;;24.14;78.78
38400;BME280;24180;42.676;23.320;2023-08-31T08:07:31;60059.53;;;24.24;78.79
38400;BME280;24180;42.676;23.320;2023-08-31T08:09:57;94525.63;;;24.38;78.80
38400;BME280;24180;42.676;23.320;2023-08-31T08:12:25;94532.88;;;24.42;78.81
38400;BME280;24180;42.676;23.320;2023-08-31T08:14:50;94514.47;;;24.47;78.81
38400;BME280;24180;42.676;23.320;2023-08-31T08:17:16;94494.88;;;24.72;78.84
38400;BME280;24180;42.676;23.320;2023-08-31T08:19:41;60059.53;;;24.24;78.79
38400;BME280;24180;42.676;23.320;2023-08-31T08:22:06;60059.53;;;24.24;78.79
38400;BME280;24180;42.676;23.320;2023-08-31T08:24:32;94494.47;;;24.52;78.82
38400;BME280;24180;42.676;23.320;2023-08-31T08:26:57;60059.53;;;24.24;78.79
38400;BME280;24180;42.676;23.320;2023-08-31T08:29:23;60059.53;;;24.24;78.79
38400;BME280;24180;42.676;23.320;2023-08-31T08:31:48;60059.53;;;24.24;78.79
38400;BME280;24180;42.676;23.320;2023-08-31T08:34:14;60059.53;;;24.24;78.79
38400;BME280;24180;42.676;23.320;2023-08-31T08:36:39;94536.06;;;24.91;78.85
38400;BME280;24180;42.676;23.320;2023-08-31T08:39:05;94537.94;;;24.79;78.84
38400;BME280;24180;42.676;23.320;2023-08-31T08:41:32;60059.53;;;24.24;78.79
38400;BME280;24180;42.676;23.320;2023-08-31T08:44:01;60059.53;;;24.24;78.88
38400;BME280;24180;42.676;23.320;2023-08-31T08:46:30;60059.53;;;24.24;78.79
38400;BME280;24180;42.676;23.320;2023-08-31T08:48:57;60059.53;;;24.24;78.79
38400;BME280;24180;42.676;23.320;2023-08-31T08:51:24;60059.53;;;24.41;78.79
38400;BME280;24180;42.676;23.320;2023-08-31T08:53:50;60059.53;;;24.24;78.88
38400;BME280;24180;42.676;23.320;2023-08-31T08:56:16;60017.63;;;24.24;78.79
38400;BME280;24180;42.676;23.320;2023-08-31T08:58:42;60017.63;;;24.24;78.88
38400;BME280;24180;42.676;23.320;2023-08-31T09:01:07;60017.63;;;24.24;78.79
38400;BME280;24180;42.676;23.320;2023-08-31T09:03:34;60017.63;;;24.24;78.88
38400;BME280;24180;42.676;23.320;2023-08-31T09:06:00;60017.63;;;24.24;78.88
38400;BME280;24180;42.676;23.320;2023-08-31T09:08:33;60017.63;;;24.41;78.88
38400;BME280;24180;42.676;23.320;2023-08-31T09:10:58;60034.38;;;24.41;78.88
38400;BME280;24180;42.676;23.320;2023-08-31T09:13:28;60034.38;;;24.41;78.88
38400;BME280;24180;42.676;23.320;2023-08-31T09:15:54;60034.38;;;24.24;78.88
38400;BME280;24180;42.676;23.320;2023-08-31T09:18:30;60017.63;;;24.24;78.79
38400;BME280;24180;42.676;23.320;2023-08-31T09:20:57;60017.63;;;24.24;78.88
38400;BME280;24180;42.676;23.320;2023-08-31T09:23:22;60034.38;;;24.24;78.88
38400;BME280;24180;42.676;23.320;2023-08-31T09:25:56;60017.63;;;24.24;78.88
38400;BME280;24180;42.676;23.320;2023-08-31T09:28:26;60034.38;;;24.41;78.88
38400;BME280;24180;42.676;23.320;2023-08-31T09:30:52;60017.63;;;24.24;78.88
38400;BME280;24180;42.676;23.320;2023-08-31T09:33:20;60017.63;;;24.24;78.88
38400;BME280;24180;42.676;23.320;2023-08-31T09:35:50;60034.38;;;24.41;78.88
38400;BME280;24180;42.676;23.320;2023-08-31T09:38:16;60034.38;;;24.41;78.79
38400;BME280;24180;42.676;23.320;2023-08-31T09:40:42;60034.38;;;24.41;78.88
38400;BME280;24180;42.676;23.320;2023-08-31T09:43:07;60034.38;;;24.24;78.88
38400;BME280;24180;42.676;23.320;2023-08-31T09:45:34;60034.38;;;24.73;79.07
38400;BME280;24180;42.676;23.320;2023-08-31T09:48:01;60017.63;;;24.24;78.88
38400;BME280;24180;42.676;23.320;2023-08-31T09:50:29;60034.38;;;24.41;78.88
38400;BME280;24180;42.676;23.320;2023-08-31T09:53:00;60034.38;;;24.41;78.88
38400;BME280;24180;42.676;23.320;2023-08-31T09:55:27;60017.63;;;24.41;78.88
38400;BME280;24180;42.676;23.320;2023-08-31T09:57:56;60017.63;;;24.41;79.07
38400;BME280;24180;42.676;23.320;2023-08-31T10:00:30;60034.38;;;24.41;78.88
38400;BME280;24180;42.676;23.320;2023-08-31T10:03:00;60034.38;;;24.41;78.88
38400;BME280;24180;42.676;23.320;2023-08-31T10:05:26;60034.38;;;24.41;78.88
38400;BME280;24180;42.676;23.320;2023-08-31T10:07:51;60034.38;;;24.41;78.88
38400;BME280;24180;42.676;23.320;2023-08-31T10:10:18;60017.63;;;24.24;78.88
38400;BME280;24180;42.676;23.320;2023-08-31T10:12:48;60017.63;;;24.24;78.88
38400;BME280;24180;42.676;23.320;2023-08-31T10:15:15;60017.63;;;24.24;78.88
38400;BME280;24180;42.676;23.320;2023-08-31T10:17:41;60017.63;;;24.24;78.88
38400;BME280;24180;42.676;23.320;2023-08-31T10:20:08;60017.63;;;24.24;78.88
38400;BME280;24180;42.676;23.320;2023-08-31T10:22:35;60017.63;;;24.24;78.88
38400;BME280;24180;42.676;23.320;2023-08-31T10:25:05;60017.63;;;24.24;78.88
38400;BME280;24180;42.676;23.320;2023-08-31T10:27:51;60017.63;;;24.24;78.88
38400;BME280;24180;42.676;23.320;2023-08-31T10:35:41;60017.63;;;24.24;78.88
38400;BME280;24180;42.676;23.320;2023-08-31T10:38:14;60017.63;;;24.24;78.88
38400;BME280;24180;42.676;23.320;2023-08-31T10:40:40;60034.38;;;24.41;78.88
38400;BME280;24180;42.676;23.320;2023-08-31T10:43:15;60034.38;;;24.41;78.88
38400;BME280;24180;42.676;23.320;2023-08-31T10:45:44;60034.38;;;24.41;78.88
38400;BME280;24180;42.676;23.320;2023-08-31T10:48:10;60017.63;;;24.24;78.88
38400;BME280;24180;42.676;23.320;2023-08-31T10:50:46;60017.63;;;24.24;78.88
38400;BME280;24180;42.676;23.320;2023-08-31T10:53:14;60034.38;;;24.41;78.88
38400;BME280;24180;42.676;23.320;2023-08-31T10:55:52;60017.63;;;24.24;78.88
38400;BME280;24180;42.676;23.320;2023-08-31T10:58:18;60017.63;;;24.24;78.88
38400;BME280;24180;42.676;23.320;2023-08-31T11:00:50;60017.63;;;24.24;78.88
38400;BME280;24180;42.676;23.320;2023-08-31T11:03:17;60017.63;;;24.24;78.88
38400;BME280;24180;42.676;23.320;2023-08-31T11:05:52;60034.38;;;24.41;78.88
38400;BME280;24180;42.676;23.320;2023-08-31T11:08:26;60117.78;;;24.41;78.88
38400;BME280;24180;42.676;23.320;2023-08-31T11:10:52;60034.38;;;24.41;78.88
38400;BME280;24180;42.676;23.320;2023-08-31T11:13:23;60017.63;;;24.24;78.90
38400;BME280;24180;42.676;23.320;2023-08-31T11:15:50;59950.53;;;24.41;79.09
38400;BME280;24180;42.676;23.320;2023-08-31T11:18:15;60117.78;;;24.41;79.07
38400;BME280;24180;42.676;23.320;2023-08-31T11:20:43;60034.38;;;24.41;78.90
38400;BME280;24180;42.676;23.320;2023-08-31T11:23:09;59950.53;;;24.41;79.09
38400;BME280;24180;42.676;23.320;2023-08-31T11:25:35;60034.38;;;24.41;78.90
38400;BME280;24180;42.676;23.320;2023-08-31T11:28:03;60017.63;;;24.24;78.88
38400;BME280;24180;42.676;23.320;2023-08-31T11:30:36;60017.63;;;24.24;78.88
38400;BME280;24180;42.676;23.320;2023-08-31T11:33:03;60034.38;;;24.41;78.88
38400;BME280;24180;42.676;23.320;2023-08-31T11:35:33;60017.63;;;24.24;78.88
38400;BME280;24180;42.676;23.320;2023-08-31T11:37:59;60017.63;;;24.24;78.88
38400;BME280;24180;42.676;23.320;2023-08-31T11:40:28;60017.63;;;24.24;78.88
38400;BME280;24180;42.676;23.320;2023-08-31T11:42:53;60034.38;;;24.41;78.90
38400;BME280;24180;42.676;23.320;2023-08-31T11:45:20;60017.63;;;24.24;78.88
38400;BME280;24180;42.676;23.320;2023-08-31T11:47:48;60017.63;;;24.24;78.88
38400;BME280;24180;42.676;23.320;2023-08-31T11:50:15;60017.63;;;24.24;78.88
38400;BME280;24180;42.676;23.320;2023-08-31T11:52:42;60017.63;;;24.24;78.88
38400;BME280;24180;42.676;23.320;2023-08-31T11:55:15;60017.63;;;24.24;78.88
38400;BME280;24180;42.676;23.320;2023-08-31T11:57:51;60017.63;;;24.24;78.88
38400;BME280;24180;42.676;23.320;2023-08-31T12:00:18;60017.63;;;24.24;78.88
38400;BME280;24180;42.676;23.320;2023-08-31T12:02:45;60017.63;;;24.24;78.88
38400;BME280;24180;42.676;23.320;2023-08-31T12:05:14;60017.63;;;24.24;78.88
38400;BME280;24180;42.676;23.320;2023-08-31T12:07:40;60017.63;;;24.24;78.88
38400;BME280;24180;42.676;23.320;2023-08-31T12:10:07;60017.63;;;24.24;78.88
38400;BME280;24180;42.676;23.320;2023-08-31T12:12:32;60017.63;;;24.24;78.88
38400;BME280;24180;42.676;23.320;2023-08-31T12:15:01;60034.38;;;26.03;78.88
38400;BME280;24180;42.676;23.320;2023-08-31T12:17:29;60017.63;;;24.24;78.88
38400;BME280;24180;42.676;23.320;2023-08-31T12:20:05;59950.53;;;24.41;78.88
38400;BME280;24180;42.676;23.320;2023-08-31T12:22:31;60017.63;;;24.24;78.88
38400;BME280;24180;42.676;23.320;2023-08-31T12:24:56;60017.63;;;24.24;78.88
38400;BME280;24180;42.676;23.320;2023-08-31T12:27:22;60017.63;;;24.24;78.88
38400;BME280;24180;42.676;23.320;2023-08-31T12:29:47;60034.38;;;24.41;78.88
38400;BME280;24180;42.676;23.320;2023-08-31T12:32:13;60034.38;;;24.41;78.88
38400;BME280;24180;42.676;23.320;2023-08-31T12:34:39;60017.63;;;24.24;78.88
38400;BME280;24180;42.676;23.320;2023-08-31T12:37:04;60017.63;;;24.24;78.88
38400;BME280;24180;42.676;23.320;2023-08-31T12:39:30;60017.63;;;24.24;78.88
38400;BME280;24180;42.676;23.320;2023-08-31T12:41:55;60017.63;;;24.24;78.88
38400;BME280;24180;42.676;23.320;2023-08-31T12:44:21;60017.63;;;24.24;78.88
38400;BME280;24180;42.676;23.320;2023-08-31T12:46:47;60034.38;;;24.41;78.88
38400;BME280;24180;42.676;23.320;2023-08-31T12:49:12;60034.38;;;24.41;78.88
38400;BME280;24180;42.676;23.320;2023-08-31T12:51:38;60017.63;;;24.24;78.88
38400;BME280;24180;42.676;23.320;2023-08-31T12:54:03;60017.63;;;24.24;78.88
38400;BME280;24180;42.676;23.320;2023-08-31T12:56:29;60034.38;;;24.41;78.88